Cambridge, United Kingdom

9:23 PM BST on August 26, 2016 (GMT +0100)
Church Road | | Change Station

Elev 39 ft 52.21 °N, 0.19 °E | Updated 9 minutes ago

Clear
Clear
70.7 °F
Feels Like 77 °F
N
0.6
Wind Variable Wind from West
Gusts 1.2 mph

Today
High -- | Low -- °F
--% Chance of Precip.
Yesterday
High -- | Low -- °F
Precip. -- in
Pressure 30.11 in
Visibility 6.2 miles
Clouds Clear
Heat Index 77 °F
Dew Point 53 °F
Humidity 53%
Rainfall 0.00 in
Snow Depth Not available.
6:01 AM 7:59 PM
Waning Crescent, 31% visible
METAR EGUN 261958Z AUTO 35005KT 9999 CLR 18/11 A3010 RMK AO2 SLP196 T01840107 .
Pressure 30.11 in
Visibility 6.2 miles
Clouds Clear
Heat Index 77 °F
Dew Point 53 °F
Humidity 53%
Rainfall 0.00 in
Snow Depth Not available.
6:01 AM 7:59 PM
Waning Crescent, 31% visible
METAR EGUN 261958Z AUTO 35005KT 9999 CLR 18/11 A3010 RMK AO2 SLP196 T01840107 .

10-Day Weather Forecast

×

Almanac

Astronomy

Aug. 26, 2016 Rise Set
Actual Time
Civil Twilight
Nautical Twilight
Astronomical Twilight
Moon
Length of Visible Light
Length of Day
Tomorrow will be .
, % of the Moon is Illuminated

Today's Extremes

Country Highs Country Lows

Community

WunderPhotos

Upload Photos

1,935,192 photos uploaded!

WunderBlog® & News

Nearby

Air Quality

  Air Quality AQ Index Pollutant
Not available.

Snow Depth

Station Depth Elevation

Earthquake Activity

City Distance Mag. Time & Date
Minimum magnitude displayed is 2.5.

Coastal Water Temperatures

Place Temperature

Stations

Nearby Weather Stations

Station Location Temp. Windchill Dew Point Humidity Wind Precip. Elev Updated Type